Time;durP1;ratioP1;P1;durP2;ratioP2;P2;SDS_P1;SDS_P2;PMS_P1;PMS_P2;Temp;Humidity;BMP_temperature;BMP_pressure;BME280_temperature;BME280_humidity;BME280_pressure;Samples;Min_cycle;Max_cycle;Signal;HPM_P1;HPM_P2
2021/12/08 00:00:00;;;;;;;3.27;2.60;;;9.20;99.90;;;;;;5066301;28;20188;-90
2021/12/08 00:02:31;;;;;;;2.70;2.50;;;9.20;99.90;;;;;;5069243;28;20208;-90
2021/12/08 00:05:02;;;;;;;3.40;2.40;;;9.20;99.90;;;;;;5066645;28;20195;-90
2021/12/08 00:07:34;;;;;;;3.20;2.70;;;9.20;99.90;;;;;;5061005;28;20220;-90
2021/12/08 00:10:15;;;;;;;2.67;2.43;;;9.10;99.90;;;;;;5062693;28;20204;-91
2021/12/08 00:13:03;;;;;;;4.07;2.27;;;9.20;99.90;;;;;;5054213;28;20231;-90
2021/12/08 00:15:37;;;;;;;4.27;2.53;;;9.20;99.90;;;;;;5062408;28;20181;-91
2021/12/08 00:18:11;;;;;;;2.83;2.30;;;9.20;99.90;;;;;;5064157;28;20219;-91
2021/12/08 00:20:45;;;;;;;3.67;2.17;;;9.20;99.90;;;;;;5057979;28;20208;-90
2021/12/08 00:23:18;;;;;;;2.20;2.00;;;9.20;99.90;;;;;;5057944;28;20276;-91
2021/12/08 00:25:54;;;;;;;3.10;2.50;;;9.10;99.90;;;;;;5064456;28;20277;-91
2021/12/08 00:28:27;;;;;;;4.30;2.80;;;9.10;99.90;;;;;;5060901;28;20259;-90
2021/12/08 00:31:02;;;;;;;3.00;2.10;;;9.10;99.90;;;;;;5064066;28;20197;-89
2021/12/08 00:33:36;;;;;;;4.27;2.37;;;9.10;99.90;;;;;;5062485;28;20219;-92
2021/12/08 00:36:14;;;;;;;12.10;6.20;;;9.20;99.90;;;;;;5054952;28;20282;-91
2021/12/08 00:38:49;;;;;;;3.20;2.63;;;9.20;99.90;;;;;;5058484;28;20204;-91
2021/12/08 00:41:26;;;;;;;2.20;2.00;;;9.20;99.90;;;;;;5048666;28;20230;-91
2021/12/08 00:43:58;;;;;;;2.23;2.07;;;9.20;99.90;;;;;;5054796;28;20231;-90
2021/12/08 00:46:32;;;;;;;6.10;2.10;;;9.20;99.90;;;;;;5061217;28;20208;-90
2021/12/08 00:49:05;;;;;;;3.63;2.10;;;9.10;99.90;;;;;;5060209;28;20240;-89
2021/12/08 00:51:37;;;;;;;2.50;2.30;;;9.10;99.90;;;;;;5056771;28;20193;-90
2021/12/08 00:54:09;;;;;;;4.17;2.40;;;9.00;99.90;;;;;;5055823;28;20227;-89
2021/12/08 00:56:41;;;;;;;2.47;2.03;;;9.00;99.90;;;;;;5052078;28;20216;-91
2021/12/08 00:59:12;;;;;;;3.00;2.17;;;9.00;99.90;;;;;;5061801;28;20211;-90
2021/12/08 01:01:46;;;;;;;2.20;1.90;;;9.00;99.90;;;;;;5059569;28;20227;-90
2021/12/08 01:04:19;;;;;;;5.97;2.27;;;9.00;99.90;;;;;;5055541;28;20215;-90
2021/12/08 01:06:53;;;;;;;2.40;2.20;;;9.00;99.90;;;;;;5053934;28;20353;-92
2021/12/08 01:09:24;;;;;;;2.07;1.87;;;8.90;99.90;;;;;;5057226;28;20243;-93
2021/12/08 01:11:57;;;;;;;5.03;2.07;;;8.90;99.90;;;;;;5058542;28;20232;-93
2021/12/08 01:14:29;;;;;;;3.60;1.80;;;8.90;99.90;;;;;;5052857;28;20202;-93
2021/12/08 01:17:05;;;;;;;2.90;2.00;;;8.90;99.90;;;;;;5050737;28;20228;-92
2021/12/08 01:19:37;;;;;;;4.37;2.20;;;8.90;99.90;;;;;;5054117;28;20243;-93
2021/12/08 01:22:09;;;;;;;2.60;2.03;;;8.80;99.90;;;;;;5053066;28;20247;-92
2021/12/08 01:24:42;;;;;;;7.13;4.50;;;8.80;99.90;;;;;;5053959;28;20197;-93
2021/12/08 01:27:13;;;;;;;5.33;4.30;;;8.80;99.90;;;;;;5055793;28;20212;-94
2021/12/08 01:29:48;;;;;;;3.43;2.57;;;8.90;99.90;;;;;;5055914;28;20231;-90
2021/12/08 01:32:22;;;;;;;3.40;2.17;;;8.80;99.90;;;;;;5058206;28;20226;-93
2021/12/08 01:34:55;;;;;;;2.83;2.53;;;8.80;99.90;;;;;;5061143;28;20269;-93
2021/12/08 01:37:39;;;;;;;5.83;2.27;;;8.80;99.90;;;;;;5061200;28;20234;-93
2021/12/08 01:40:16;;;;;;;2.70;1.80;;;8.80;99.90;;;;;;5055299;28;20326;-93
2021/12/08 01:42:53;;;;;;;2.20;1.90;;;8.80;99.90;;;;;;5061111;28;20324;-92
2021/12/08 01:48:21;;;;;;;5.13;2.27;;;8.80;99.90;;;;;;5060441;28;20231;-93
2021/12/08 01:50:56;;;;;;;4.27;1.70;;;8.80;99.90;;;;;;5056557;28;20211;-92
2021/12/08 01:53:28;;;;;;;2.73;1.87;;;8.80;99.90;;;;;;5089707;22;20219;-93
2021/12/08 01:56:03;;;;;;;2.93;1.33;;;8.90;99.90;;;;;;5051246;28;20223;-92
2021/12/08 01:58:37;;;;;;;6.13;1.90;;;8.90;99.90;;;;;;5058831;28;20266;-92
2021/12/08 02:01:13;;;;;;;3.27;1.33;;;8.90;99.90;;;;;;5064341;28;20303;-93
2021/12/08 02:04:16;;;;;;;2.43;1.73;;;8.90;99.90;;;;;;5057965;28;20201;-93
2021/12/08 02:06:49;;;;;;;2.53;1.70;;;8.90;99.90;;;;;;5058404;28;20244;-92
2021/12/08 02:09:21;;;;;;;3.23;1.47;;;8.90;99.90;;;;;;5056081;28;20637;-93
2021/12/08 02:11:55;;;;;;;3.37;1.40;;;8.90;99.90;;;;;;5058550;28;20192;-93
2021/12/08 02:14:29;;;;;;;3.13;1.47;;;8.90;99.90;;;;;;5058629;28;20204;-92
2021/12/08 02:17:01;;;;;;;3.80;1.40;;;9.00;99.90;;;;;;5054746;28;20211;-93
2021/12/08 02:19:35;;;;;;;4.80;1.73;;;9.00;99.90;;;;;;5057956;28;20199;-94
2021/12/08 02:22:09;;;;;;;5.63;1.60;;;9.00;99.90;;;;;;5057909;28;20228;-93
2021/12/08 02:24:41;;;;;;;4.07;1.57;;;9.00;99.90;;;;;;5062389;28;20231;-93
2021/12/08 02:27:12;;;;;;;3.57;1.63;;;9.00;99.90;;;;;;5061470;28;20197;-92
2021/12/08 02:29:50;;;;;;;2.00;1.50;;;9.00;99.90;;;;;;5058760;28;20219;-94
2021/12/08 02:46:48;;;;;;;4.37;1.57;;;9.00;99.90;;;;;;5063113;28;20219;-94
2021/12/08 02:49:22;;;;;;;2.85;1.50;;;9.00;99.90;;;;;;5090343;22;20304;-94
2021/12/08 02:51:54;;;;;;;6.67;1.87;;;9.00;99.90;;;;;;5051921;28;20209;-94
2021/12/08 02:54:36;;;;;;;4.67;2.17;;;9.00;99.90;;;;;;5050910;28;20193;-96
2021/12/08 02:57:07;;;;;;;3.03;1.70;;;9.00;99.90;;;;;;5047478;28;20208;-95
2021/12/08 02:59:41;;;;;;;2.53;1.70;;;9.00;99.90;;;;;;5057371;28;20199;-95
2021/12/08 03:02:15;;;;;;;4.40;1.90;;;9.00;99.90;;;;;;5056509;28;20228;-95
2021/12/08 03:04:48;;;;;;;4.47;2.00;;;9.00;99.90;;;;;;5049979;28;20642;-95
2021/12/08 03:07:22;;;;;;;6.30;2.10;;;9.00;99.90;;;;;;5029737;28;20233;-92
2021/12/08 03:09:57;;;;;;;4.23;2.03;;;9.00;99.90;;;;;;5032916;28;20204;-95
2021/12/08 03:12:32;;;;;;;5.50;2.20;;;9.00;99.90;;;;;;5027163;28;20213;-94
2021/12/08 03:15:05;;;;;;;3.73;2.17;;;9.00;99.90;;;;;;5028648;28;20205;-94
2021/12/08 03:17:40;;;;;;;8.10;2.77;;;9.00;99.90;;;;;;5022786;28;20236;-94
2021/12/08 03:20:15;;;;;;;4.57;2.70;;;9.00;99.90;;;;;;5027431;28;20197;-95
2021/12/08 03:22:49;;;;;;;3.60;2.63;;;9.00;99.90;;;;;;5028737;28;20281;-94
2021/12/08 03:25:25;;;;;;;4.97;2.50;;;9.00;99.90;;;;;;5021190;28;20207;-95
2021/12/08 03:28:08;;;;;;;3.43;2.10;;;9.10;99.90;;;;;;5031251;28;20280;-92
2021/12/08 03:30:54;;;;;;;5.60;2.60;;;9.10;99.90;;;;;;5023031;28;21204;-93
2021/12/08 03:33:26;;;;;;;4.30;2.70;;;9.20;99.90;;;;;;5029299;28;20225;-92
2021/12/08 03:35:59;;;;;;;5.40;2.67;;;9.20;99.90;;;;;;5026806;28;20278;-94
2021/12/08 03:38:32;;;;;;;4.50;2.93;;;9.20;99.90;;;;;;5030557;28;20202;-93
2021/12/08 03:41:08;;;;;;;5.13;2.80;;;9.20;99.90;;;;;;5030151;28;20213;-94
2021/12/08 03:43:40;;;;;;;6.10;2.97;;;9.20;99.90;;;;;;5030086;28;20283;-93
2021/12/08 03:46:19;;;;;;;4.03;2.97;;;9.10;99.90;;;;;;5028499;28;20197;-94
2021/12/08 03:48:52;;;;;;;4.37;3.57;;;9.10;99.90;;;;;;5029674;28;20201;-94
2021/12/08 03:51:26;;;;;;;5.43;2.90;;;9.10;99.90;;;;;;5028370;28;20220;-95
2021/12/08 03:53:58;;;;;;;5.07;3.10;;;9.10;99.90;;;;;;5029911;28;20221;-93
2021/12/08 03:56:33;;;;;;;5.13;2.80;;;9.10;99.90;;;;;;5027766;28;20578;-95
2021/12/08 03:59:07;;;;;;;6.00;3.30;;;9.10;99.90;;;;;;5027646;28;20217;-94
2021/12/08 04:01:39;;;;;;;5.73;3.30;;;9.10;99.90;;;;;;5024136;28;20236;-93
2021/12/08 04:12:20;;;;;;;9.47;4.20;;;9.10;99.90;;;;;;5025859;28;20229;-92
2021/12/08 04:14:54;;;;;;;7.07;4.60;;;9.00;99.90;;;;;;5028788;28;20205;-95
2021/12/08 04:17:30;;;;;;;7.93;4.87;;;9.10;99.90;;;;;;5027745;28;20213;-93
2021/12/08 04:20:08;;;;;;;6.40;5.73;;;9.00;99.90;;;;;;5018970;28;20201;-95
2021/12/08 04:22:41;;;;;;;7.43;6.17;;;9.00;99.90;;;;;;5013376;28;20197;-95
2021/12/08 04:25:16;;;;;;;8.77;6.60;;;9.00;99.90;;;;;;5017878;28;20232;-95
2021/12/08 04:27:52;;;;;;;8.37;7.40;;;9.00;99.90;;;;;;5016327;28;20287;-94
2021/12/08 04:30:26;;;;;;;9.10;7.43;;;9.00;99.90;;;;;;5015434;28;20264;-93
2021/12/08 04:32:58;;;;;;;8.93;8.03;;;9.00;99.90;;;;;;5025145;28;20209;-93
2021/12/08 04:35:32;;;;;;;8.80;7.90;;;9.00;99.90;;;;;;5030460;28;20267;-94
2021/12/08 04:38:08;;;;;;;9.30;8.40;;;9.00;99.90;;;;;;5023426;28;20206;-94
2021/12/08 04:40:51;;;;;;;9.73;7.63;;;9.00;99.90;;;;;;5028766;28;20244;-93
2021/12/08 04:43:32;;;;;;;9.97;7.47;;;9.00;99.90;;;;;;5028034;28;20217;-94
2021/12/08 04:46:13;;;;;;;7.17;6.47;;;9.10;99.90;;;;;;5026651;28;20232;-95
2021/12/08 04:49:05;;;;;;;8.57;6.27;;;9.00;99.90;;;;;;5027522;28;20292;-94
2021/12/08 04:51:48;;;;;;;8.27;6.77;;;9.00;99.90;;;;;;5020191;28;20209;-95
2021/12/08 05:03:21;;;;;;;10.10;7.13;;;9.00;99.90;;;;;;5026718;28;20227;-93
2021/12/08 05:08:42;;;;;;;7.77;6.70;;;9.00;99.90;;;;;;5027014;28;20220;-95
2021/12/08 05:11:18;;;;;;;7.77;6.67;;;9.00;99.90;;;;;;5019595;28;20626;-94
2021/12/08 05:13:51;;;;;;;8.90;6.37;;;9.00;99.90;;;;;;5029130;28;20719;-93
2021/12/08 05:16:27;;;;;;;7.83;6.93;;;9.00;99.90;;;;;;5032612;28;20232;-94
2021/12/08 05:19:03;;;;;;;9.00;7.37;;;8.90;99.90;;;;;;5107469;22;20202;-94
2021/12/08 05:21:41;;;;;;;8.13;7.33;;;8.90;99.90;;;;;;5064036;28;20199;-93
2021/12/08 05:24:19;;;;;;;7.67;6.97;;;8.90;99.90;;;;;;5065417;28;20231;-94
2021/12/08 05:26:58;;;;;;;7.00;6.27;;;8.90;99.90;;;;;;5060278;28;20299;-92
2021/12/08 05:29:40;;;;;;;7.47;6.10;;;8.90;99.90;;;;;;5058442;28;20303;-93
2021/12/08 05:32:14;;;;;;;7.43;6.20;;;9.00;99.90;;;;;;5054138;28;20200;-94
2021/12/08 05:34:54;;;;;;;6.03;5.20;;;9.00;99.90;;;;;;5040644;28;20674;-94
2021/12/08 05:37:31;;;;;;;6.70;4.90;;;9.10;99.90;;;;;;5064326;28;20231;-95
2021/12/08 05:40:07;;;;;;;7.93;6.83;;;9.10;99.90;;;;;;5056159;28;20265;-94
2021/12/08 05:42:39;;;;;;;7.07;4.40;;;9.10;99.90;;;;;;5058959;28;20549;-94
2021/12/08 05:45:17;;;;;;;6.73;4.70;;;9.10;99.90;;;;;;5059516;28;20270;-93
2021/12/08 05:47:55;;;;;;;5.10;3.87;;;9.10;99.90;;;;;;5061220;28;20194;-92
2021/12/08 05:50:34;;;;;;;4.13;3.40;;;9.10;99.90;;;;;;5060147;28;20257;-96
2021/12/08 05:53:06;;;;;;;3.83;2.90;;;9.10;99.90;;;;;;5042585;28;20207;-95
2021/12/08 05:55:40;;;;;;;6.43;2.50;;;9.10;99.90;;;;;;5060805;28;20212;-94
2021/12/08 05:58:26;;;;;;;4.20;3.10;;;9.10;99.90;;;;;;5062600;28;20252;-95
2021/12/08 06:01:04;;;;;;;4.27;2.63;;;9.10;99.90;;;;;;5069872;28;20188;-95
2021/12/08 06:03:41;;;;;;;5.57;2.50;;;9.10;99.90;;;;;;5272664;22;20230;-94
2021/12/08 06:06:13;;;;;;;3.37;1.97;;;9.10;99.90;;;;;;5070331;28;20206;-93
2021/12/08 06:08:49;;;;;;;4.53;2.23;;;9.10;99.90;;;;;;5096708;28;20278;-95
2021/12/08 06:11:27;;;;;;;2.47;2.00;;;9.10;99.90;;;;;;5091994;22;20236;-95
2021/12/08 06:14:00;;;;;;;3.30;2.07;;;9.10;99.90;;;;;;5054016;28;20204;-94
2021/12/08 06:16:33;;;;;;;1.67;1.50;;;9.10;99.90;;;;;;5046384;28;20224;-91
2021/12/08 06:19:08;;;;;;;3.07;1.60;;;9.10;99.90;;;;;;5047877;28;20201;-95
2021/12/08 06:21:40;;;;;;;3.33;1.50;;;9.10;99.90;;;;;;5046186;28;20349;-94
2021/12/08 06:24:16;;;;;;;4.50;1.70;;;9.00;99.90;;;;;;5039554;28;20315;-94
2021/12/08 06:26:48;;;;;;;2.07;1.47;;;9.10;99.90;;;;;;5039963;28;20224;-93
2021/12/08 06:29:21;;;;;;;2.30;1.33;;;9.10;99.90;;;;;;5039464;28;20208;-95
2021/12/08 06:31:57;;;;;;;2.77;1.33;;;9.10;99.90;;;;;;5041316;28;20228;-95
2021/12/08 06:34:31;;;;;;;2.50;1.07;;;9.10;99.90;;;;;;5040265;28;20204;-95
2021/12/08 06:37:07;;;;;;;4.50;0.90;;;9.10;99.90;;;;;;5021998;28;20215;-95
2021/12/08 06:39:43;;;;;;;1.33;1.10;;;9.10;99.90;;;;;;5042490;28;20276;-93
2021/12/08 06:42:17;;;;;;;2.23;1.40;;;9.10;99.90;;;;;;5041203;28;20219;-94
2021/12/08 06:44:51;;;;;;;2.83;1.10;;;9.10;99.90;;;;;;5041545;28;20239;-94
2021/12/08 06:47:33;;;;;;;2.30;0.93;;;9.10;99.90;;;;;;5008001;28;20255;-93
2021/12/08 06:50:14;;;;;;;2.80;1.10;;;9.10;99.90;;;;;;5038237;28;20197;-92
2021/12/08 06:52:46;;;;;;;1.63;1.13;;;9.10;99.90;;;;;;5037906;28;20288;-93
2021/12/08 06:55:21;;;;;;;2.93;1.17;;;9.10;99.90;;;;;;5038896;28;20607;-94
2021/12/08 06:57:57;;;;;;;2.67;1.27;;;9.10;99.90;;;;;;5020844;28;20212;-94
2021/12/08 07:00:48;;;;;;;1.53;1.03;;;9.00;99.90;;;;;;5038364;28;20204;-95
2021/12/08 07:03:36;;;;;;;2.30;1.70;;;9.10;99.90;;;;;;5036714;28;20201;-96
2021/12/08 07:06:29;;;;;;;11.97;3.90;;;9.00;99.90;;;;;;5037061;28;20588;-95
2021/12/08 07:09:02;;;;;;;2.00;1.43;;;9.00;99.90;;;;;;5023277;28;20231;-95
2021/12/08 07:11:35;;;;;;;2.30;2.10;;;9.00;99.90;;;;;;5035711;28;20235;-94
2021/12/08 07:14:06;;;;;;;2.03;1.83;;;9.00;99.90;;;;;;5020800;28;20284;-93
2021/12/08 07:16:42;;;;;;;3.87;3.20;;;9.00;99.90;;;;;;5037459;28;20219;-93
2021/12/08 07:19:23;;;;;;;4.90;3.10;;;8.90;99.90;;;;;;5037912;28;20237;-93
2021/12/08 07:22:00;;;;;;;4.40;2.97;;;9.00;99.90;;;;;;5005233;28;20262;-95
2021/12/08 07:24:34;;;;;;;3.33;2.70;;;8.90;99.90;;;;;;5044246;28;20675;-94
2021/12/08 07:27:08;;;;;;;4.30;3.00;;;8.90;99.90;;;;;;5038125;28;20294;-95
2021/12/08 07:29:43;;;;;;;4.17;3.30;;;8.90;99.90;;;;;;5037023;28;20204;-94
2021/12/08 07:32:17;;;;;;;6.17;3.20;;;8.90;99.90;;;;;;5019288;28;20224;-94
2021/12/08 07:34:51;;;;;;;3.13;2.27;;;8.90;99.90;;;;;;5037921;28;20208;-94
2021/12/08 07:37:30;;;;;;;4.90;2.47;;;8.90;99.90;;;;;;5054499;28;20251;-95
2021/12/08 07:40:08;;;;;;;3.73;1.67;;;8.90;99.90;;;;;;5055219;28;20222;-94
2021/12/08 07:42:47;;;;;;;3.47;1.40;;;8.90;99.90;;;;;;5045318;28;20207;-95
2021/12/08 07:45:23;;;;;;;2.87;2.03;;;8.80;99.90;;;;;;5038564;28;20228;-94
2021/12/08 07:47:57;;;;;;;8.90;4.73;;;8.80;99.90;;;;;;5037314;28;20204;-94
2021/12/08 07:50:32;;;;;;;4.33;3.87;;;8.80;99.90;;;;;;5037293;28;20216;-92
2021/12/08 07:53:07;;;;;;;1.47;0.80;;;8.90;99.90;;;;;;5037446;28;20295;-93
2021/12/08 07:55:43;;;;;;;1.77;1.53;;;8.90;99.90;;;;;;5037378;28;20205;-94
2021/12/08 07:58:17;;;;;;;1.80;1.50;;;8.90;99.90;;;;;;5051556;28;20265;-94
2021/12/08 08:00:50;;;;;;;6.93;4.87;;;8.80;99.90;;;;;;5036944;28;20253;-94
2021/12/08 08:03:22;;;;;;;2.20;1.00;;;8.80;99.90;;;;;;5039810;28;20201;-96
2021/12/08 08:05:55;;;;;;;1.50;1.40;;;8.80;99.90;;;;;;5040822;28;20239;-94
2021/12/08 08:08:33;;;;;;;1.50;1.13;;;8.80;99.90;;;;;;5036941;28;20205;-95
2021/12/08 08:11:09;;;;;;;1.83;1.33;;;8.90;99.90;;;;;;5036483;28;20243;-94
2021/12/08 08:13:41;;;;;;;3.33;1.20;;;8.90;99.90;;;;;;5038771;28;20286;-93
2021/12/08 08:16:15;;;;;;;1.20;1.00;;;8.90;99.90;;;;;;5033101;28;20272;-92
2021/12/08 08:18:53;;;;;;;2.23;1.90;;;9.00;99.90;;;;;;5031056;28;20279;-93
2021/12/08 08:21:28;;;;;;;2.57;1.57;;;9.00;99.90;;;;;;5018660;28;20235;-94
2021/12/08 08:24:02;;;;;;;1.70;1.40;;;9.10;99.90;;;;;;5037304;28;20231;-92
2021/12/08 08:26:34;;;;;;;2.90;2.70;;;9.10;99.90;;;;;;5032023;28;20265;-93
2021/12/08 08:29:06;;;;;;;3.37;2.97;;;9.10;99.90;;;;;;5037058;28;20227;-92
2021/12/08 08:31:41;;;;;;;2.10;1.60;;;9.10;99.90;;;;;;5038390;28;20217;-95
2021/12/08 08:34:13;;;;;;;8.83;5.93;;;9.10;99.90;;;;;;5040123;28;20243;-95
2021/12/08 08:36:47;;;;;;;15.67;7.03;;;9.10;99.90;;;;;;5037578;28;20255;-96
2021/12/08 08:39:25;;;;;;;1.97;1.73;;;9.10;99.90;;;;;;5035954;28;20317;-96
2021/12/08 08:42:01;;;;;;;5.40;5.00;;;9.10;99.90;;;;;;5034053;28;20227;-95
2021/12/08 08:44:37;;;;;;;1.77;1.30;;;9.00;99.90;;;;;;5036557;28;20598;-94
2021/12/08 08:47:12;;;;;;;2.47;1.60;;;9.00;99.90;;;;;;5019078;28;20270;-94
2021/12/08 08:49:44;;;;;;;2.50;1.80;;;9.00;99.90;;;;;;5036432;28;20224;-95
2021/12/08 08:52:24;;;;;;;2.63;1.73;;;9.00;99.90;;;;;;5034129;28;20209;-94
2021/12/08 08:55:01;;;;;;;1.90;1.63;;;9.00;99.90;;;;;;5036182;28;20236;-94
2021/12/08 08:57:39;;;;;;;4.03;3.63;;;8.90;99.90;;;;;;5033243;28;21515;-95
2021/12/08 09:00:16;;;;;;;10.67;8.10;;;8.90;99.90;;;;;;5035966;28;20209;-94
2021/12/08 09:02:49;;;;;;;2.13;2.03;;;8.90;99.90;;;;;;5018739;28;20276;-95
2021/12/08 09:05:26;;;;;;;2.50;2.17;;;8.90;99.90;;;;;;5034702;28;20259;-95
2021/12/08 09:08:17;;;;;;;3.00;2.80;;;8.90;99.90;;;;;;5035701;28;20207;-95
2021/12/08 09:10:55;;;;;;;2.17;1.37;;;8.90;99.90;;;;;;5035648;28;20229;-94
2021/12/08 09:13:31;;;;;;;2.03;1.07;;;8.90;99.90;;;;;;5034175;28;20630;-93
2021/12/08 09:16:08;;;;;;;3.63;3.33;;;8.90;99.90;;;;;;5034140;28;20208;-95
2021/12/08 09:18:48;;;;;;;3.30;1.53;;;8.90;99.90;;;;;;5041475;28;20204;-93
2021/12/08 09:21:25;;;;;;;1.60;1.10;;;8.90;99.90;;;;;;5038751;28;20233;-94
2021/12/08 09:24:04;;;;;;;1.93;1.30;;;8.90;99.90;;;;;;5036225;28;20225;-95
2021/12/08 09:27:01;;;;;;;0.93;0.83;;;8.80;99.90;;;;;;5022059;28;20279;-93
2021/12/08 09:29:42;;;;;;;0.77;0.73;;;8.80;99.90;;;;;;5040671;28;20235;-94
2021/12/08 09:32:18;;;;;;;1.27;0.70;;;8.90;99.90;;;;;;5038209;28;20254;-94
2021/12/08 09:34:56;;;;;;;4.63;4.23;;;8.90;99.90;;;;;;5039635;28;20232;-92
2021/12/08 09:37:35;;;;;;;0.50;0.50;;;8.80;99.90;;;;;;5022399;28;20224;-96
2021/12/08 09:40:11;;;;;;;0.57;0.57;;;8.80;99.90;;;;;;5040867;28;20208;-95
2021/12/08 09:42:53;;;;;;;1.97;1.40;;;8.80;99.90;;;;;;5037763;28;20222;-93
2021/12/08 09:45:28;;;;;;;1.70;0.90;;;8.80;99.90;;;;;;5034292;28;20310;-92
2021/12/08 09:48:02;;;;;;;2.20;1.43;;;8.80;99.90;;;;;;5059598;28;20192;-95
2021/12/08 09:50:34;;;;;;;3.60;3.07;;;8.70;99.90;;;;;;5085849;22;20226;-96
2021/12/08 09:53:07;;;;;;;1.77;0.50;;;8.70;99.90;;;;;;5028402;28;20212;-95
2021/12/08 09:55:39;;;;;;;0.80;0.80;;;8.70;99.90;;;;;;5059822;28;20286;-96
2021/12/08 09:58:12;;;;;;;2.87;1.07;;;8.70;99.90;;;;;;5058480;28;20207;-95
2021/12/08 10:00:46;;;;;;;3.83;3.60;;;8.70;99.90;;;;;;5059641;28;20196;-94
2021/12/08 10:03:19;;;;;;;5.33;2.47;;;8.60;99.90;;;;;;5040670;28;20283;-95
2021/12/08 10:05:51;;;;;;;0.73;0.40;;;8.60;99.90;;;;;;5056044;28;20283;-93
2021/12/08 10:08:22;;;;;;;0.67;0.67;;;8.60;99.90;;;;;;5059397;28;20629;-94
2021/12/08 10:10:54;;;;;;;0.60;0.20;;;8.50;99.90;;;;;;5041466;28;20276;-96
2021/12/08 10:13:26;;;;;;;0.20;0.20;;;8.50;99.90;;;;;;5059293;28;20290;-94
2021/12/08 10:15:57;;;;;;;1.63;0.47;;;8.50;99.90;;;;;;5054800;28;20216;-93
2021/12/08 10:18:28;;;;;;;0.70;0.70;;;8.50;99.90;;;;;;5055264;28;20242;-94
2021/12/08 10:21:00;;;;;;;0.20;0.20;;;8.50;99.90;;;;;;5057719;28;20240;-94
2021/12/08 10:23:34;;;;;;;1.97;0.33;;;8.50;99.90;;;;;;5057319;28;20667;-94
2021/12/08 10:26:10;;;;;;;0.30;0.30;;;8.50;99.90;;;;;;5058697;28;20231;-94
2021/12/08 10:28:44;;;;;;;3.27;0.30;;;8.50;99.90;;;;;;5064293;28;20203;-96
2021/12/08 10:31:24;;;;;;;0.60;0.13;;;8.40;99.90;;;;;;5037869;28;20302;-96
2021/12/08 10:34:02;;;;;;;0.40;0.20;;;8.40;99.90;;;;;;5037593;28;20204;-96
2021/12/08 10:36:46;;;;;;;1.03;1.03;;;8.40;99.90;;;;;;5036913;28;20207;-96
2021/12/08 10:39:22;;;;;;;0.10;0.10;;;8.40;99.90;;;;;;5038700;28;20205;-95
2021/12/08 10:42:05;;;;;;;1.60;0.30;;;8.40;99.90;;;;;;5037745;28;20205;-95
2021/12/08 10:44:53;;;;;;;5.37;4.27;;;8.40;99.90;;;;;;5037648;28;20203;-96
2021/12/08 10:47:32;;;;;;;6.60;3.30;;;8.30;99.90;;;;;;5036973;28;20231;-94
2021/12/08 10:55:53;;;;;;;2.03;0.53;;;8.30;99.90;;;;;;5037662;28;20645;-94
2021/12/08 10:58:29;;;;;;;0.93;0.93;;;8.30;99.90;;;;;;5038874;28;20270;-95
2021/12/08 11:01:11;;;;;;;0.83;0.20;;;8.20;99.90;;;;;;5016894;28;20205;-94
2021/12/08 11:03:44;;;;;;;2.57;2.20;;;8.20;99.90;;;;;;5038007;28;20288;-94
2021/12/08 11:06:19;;;;;;;0.63;0.50;;;8.20;99.90;;;;;;5036311;28;20252;-96
2021/12/08 11:08:54;;;;;;;0.67;0.27;;;8.20;99.90;;;;;;5039081;28;20221;-93
2021/12/08 11:11:29;;;;;;;2.00;1.60;;;8.20;99.90;;;;;;5039438;28;20273;-94
2021/12/08 11:14:03;;;;;;;1.07;0.53;;;8.10;99.90;;;;;;5038717;28;20296;-96
2021/12/08 11:16:41;;;;;;;0.97;0.40;;;8.10;99.90;;;;;;5022404;28;20259;-93
2021/12/08 11:19:14;;;;;;;2.57;0.40;;;8.10;99.90;;;;;;5037780;28;20202;-93
2021/12/08 11:21:48;;;;;;;1.53;0.40;;;8.10;99.90;;;;;;5038630;28;20201;-93
2021/12/08 11:24:31;;;;;;;3.30;0.67;;;8.00;99.90;;;;;;5039859;28;20209;-94
2021/12/08 11:27:05;;;;;;;0.53;0.30;;;8.00;99.90;;;;;;5038633;28;20298;-94
2021/12/08 11:29:39;;;;;;;1.27;0.40;;;8.00;99.90;;;;;;5040845;28;20205;-95
2021/12/08 11:32:18;;;;;;;0.40;0.30;;;8.00;99.90;;;;;;5037765;28;20217;-96
2021/12/08 11:34:51;;;;;;;2.23;0.40;;;8.00;99.90;;;;;;5040977;28;20219;-94
2021/12/08 11:37:25;;;;;;;2.93;1.90;;;8.00;99.90;;;;;;5040080;28;20197;-95
2021/12/08 11:40:00;;;;;;;0.80;0.70;;;8.00;99.90;;;;;;5039093;28;20258;-96
2021/12/08 11:42:37;;;;;;;0.87;0.83;;;7.90;99.90;;;;;;5026541;28;20204;-95
2021/12/08 11:45:14;;;;;;;0.50;0.30;;;7.90;99.90;;;;;;5041428;28;20204;-96
2021/12/08 11:47:48;;;;;;;1.13;0.20;;;7.90;99.90;;;;;;5048805;28;20213;-94
2021/12/08 11:50:22;;;;;;;1.33;0.27;;;7.90;99.90;;;;;;5053862;28;20235;-92
2021/12/08 11:52:55;;;;;;;1.50;0.40;;;7.90;99.90;;;;;;5042405;28;20434;-94
2021/12/08 11:55:29;;;;;;;0.67;0.30;;;7.90;99.90;;;;;;5055006;28;20189;-96
2021/12/08 11:58:02;;;;;;;2.43;0.40;;;8.00;99.90;;;;;;5054746;28;20205;-96
2021/12/08 12:00:39;;;;;;;1.30;0.30;;;7.90;99.90;;;;;;5053018;28;20188;-96
2021/12/08 12:03:15;;;;;;;2.83;0.40;;;7.90;99.90;;;;;;5037016;28;20208;-96
2021/12/08 12:05:50;;;;;;;1.33;0.33;;;7.80;99.90;;;;;;5056662;28;20208;-95
2021/12/08 12:08:25;;;;;;;3.70;0.47;;;7.80;99.90;;;;;;5055434;28;20206;-95
2021/12/08 12:11:01;;;;;;;0.37;0.30;;;7.90;99.90;;;;;;5055529;28;20240;-96
2021/12/08 12:13:33;;;;;;;2.47;0.60;;;7.80;99.90;;;;;;5047301;28;20287;-94
2021/12/08 12:16:05;;;;;;;2.30;0.40;;;7.80;99.90;;;;;;5027366;28;20213;-94
2021/12/08 12:18:39;;;;;;;1.43;0.40;;;7.80;99.90;;;;;;5034999;28;20207;-95
2021/12/08 12:21:20;;;;;;;2.30;0.40;;;7.80;99.90;;;;;;5043857;28;20201;-94
2021/12/08 12:24:14;;;;;;;1.03;0.40;;;7.80;99.90;;;;;;5077327;22;20256;-93
2021/12/08 12:26:55;;;;;;;4.00;2.30;;;7.80;99.90;;;;;;5080867;28;20210;-93
2021/12/08 12:29:42;;;;;;;4.57;0.50;;;7.80;99.90;;;;;;5081113;28;20250;-93
2021/12/08 12:32:23;;;;;;;1.90;0.50;;;7.80;99.90;;;;;;5078424;28;20208;-93
2021/12/08 12:35:13;;;;;;;1.10;0.40;;;7.80;99.90;;;;;;5081838;28;20218;-94
2021/12/08 12:37:45;;;;;;;0.57;0.37;;;7.80;99.90;;;;;;5284361;22;20236;-95
2021/12/08 12:40:20;;;;;;;1.47;0.37;;;7.90;99.90;;;;;;5061670;28;20207;-95
2021/12/08 12:42:55;;;;;;;4.97;0.47;;;7.90;99.90;;;;;;5062612;28;20219;-95
2021/12/08 12:45:35;;;;;;;4.20;0.50;;;7.90;99.90;;;;;;5059419;28;20203;-94
2021/12/08 12:48:20;;;;;;;2.50;0.60;;;7.90;99.90;;;;;;5043312;28;20317;-94
2021/12/08 12:50:58;;;;;;;1.43;0.30;;;7.90;99.90;;;;;;5061072;28;20222;-95
2021/12/08 12:53:40;;;;;;;0.70;0.30;;;8.00;99.90;;;;;;5059317;28;20250;-96
2021/12/08 12:56:15;;;;;;;2.03;0.50;;;7.90;99.90;;;;;;5059800;28;20642;-94
2021/12/08 12:58:51;;;;;;;0.43;0.20;;;7.90;99.90;;;;;;5058497;28;20239;-96
2021/12/08 13:01:30;;;;;;;1.50;0.50;;;7.90;99.90;;;;;;5061782;28;20204;-96
2021/12/08 13:04:08;;;;;;;3.03;1.07;;;7.90;99.90;;;;;;5066991;28;20174;-94
2021/12/08 13:06:52;;;;;;;2.10;0.50;;;7.90;99.90;;;;;;5070166;28;20231;-96
2021/12/08 13:09:46;;;;;;;0.30;0.30;;;7.90;99.90;;;;;;5071170;28;20301;-96
2021/12/08 13:12:26;;;;;;;1.07;0.43;;;7.90;99.90;;;;;;5071880;28;20260;-95
2021/12/08 13:15:13;;;;;;;2.03;0.50;;;7.90;99.90;;;;;;5061825;28;20209;-95
2021/12/08 13:18:05;;;;;;;0.93;0.30;;;7.90;99.90;;;;;;5060377;28;20191;-91
2021/12/08 13:20:40;;;;;;;2.60;0.30;;;7.90;99.90;;;;;;5043108;28;20201;-95
2021/12/08 13:23:15;;;;;;;2.13;0.47;;;7.90;99.90;;;;;;5060079;28;20209;-93
2021/12/08 13:26:02;;;;;;;1.60;0.40;;;7.90;99.90;;;;;;5069415;28;20299;-95
2021/12/08 13:28:49;;;;;;;1.57;0.47;;;7.90;99.90;;;;;;5072473;28;20223;-96
2021/12/08 13:31:26;;;;;;;1.27;0.40;;;7.80;99.90;;;;;;5070394;28;20242;-95
2021/12/08 13:34:01;;;;;;;2.47;0.40;;;7.80;99.90;;;;;;5063150;28;20643;-95
2021/12/08 13:36:39;;;;;;;1.67;0.53;;;7.70;99.90;;;;;;5058992;28;20268;-94
2021/12/08 13:39:30;;;;;;;1.67;0.40;;;7.70;99.90;;;;;;5068695;28;20212;-92
2021/12/08 13:42:28;;;;;;;3.40;0.60;;;7.60;99.90;;;;;;5068132;28;20279;-94
2021/12/08 13:45:03;;;;;;;2.27;0.50;;;7.50;99.90;;;;;;5061974;28;20622;-95
2021/12/08 13:47:36;;;;;;;3.20;0.40;;;7.50;99.90;;;;;;5061157;28;20706;-94
2021/12/08 13:50:11;;;;;;;0.80;0.50;;;7.50;99.90;;;;;;5058593;28;20230;-94
2021/12/08 13:52:45;;;;;;;2.63;0.57;;;7.50;99.90;;;;;;5058647;28;20208;-96
2021/12/08 13:55:24;;;;;;;7.13;1.00;;;7.50;99.90;;;;;;5060544;28;20200;-94
2021/12/08 13:57:58;;;;;;;3.57;0.50;;;7.40;99.90;;;;;;5058913;28;20730;-95
2021/12/08 14:00:37;;;;;;;2.20;0.60;;;7.40;99.90;;;;;;5058461;28;20204;-94
2021/12/08 14:03:12;;;;;;;1.53;0.50;;;7.40;99.90;;;;;;5054941;28;20204;-95
2021/12/08 14:05:47;;;;;;;3.03;0.67;;;7.40;99.90;;;;;;5061428;28;20205;-95
2021/12/08 14:08:27;;;;;;;3.40;0.60;;;7.40;99.90;;;;;;5065475;28;20723;-94
2021/12/08 14:11:04;;;;;;;2.63;0.60;;;7.30;99.90;;;;;;5072306;28;20219;-95
2021/12/08 14:13:38;;;;;;;1.63;0.60;;;7.00;99.90;;;;;;5065991;28;20208;-94
2021/12/08 14:16:10;;;;;;;4.90;0.87;;;6.80;99.90;;;;;;5060407;28;20203;-92
2021/12/08 14:18:43;;;;;;;2.47;0.63;;;6.50;99.90;;;;;;5064353;28;20215;-93
2021/12/08 14:21:31;;;;;;;3.83;0.93;;;6.40;99.90;;;;;;5060604;28;20200;-93
2021/12/08 14:24:26;;;;;;;4.27;1.30;;;6.30;99.90;;;;;;5059025;28;20196;-93
2021/12/08 14:27:00;;;;;;;6.30;1.23;;;6.20;99.90;;;;;;5041520;28;20227;-94